sensor_id;sensor_type;location;lat;lon;timestamp;P1;durP1;ratioP1;P2;durP2;ratioP2
16407;SDS011;8313;49.894;8.084;2023-12-14T00:01:21;2.90;;;2.10;;
16407;SDS011;8313;49.894;8.084;2023-12-14T00:03:47;3.63;;;2.53;;
16407;SDS011;8313;49.894;8.084;2023-12-14T00:06:13;2.73;;;2.17;;
16407;SDS011;8313;49.894;8.084;2023-12-14T00:08:39;3.00;;;2.30;;
16407;SDS011;8313;49.894;8.084;2023-12-14T00:11:05;5.33;;;2.77;;
16407;SDS011;8313;49.894;8.084;2023-12-14T00:13:32;2.40;;;2.20;;
16407;SDS011;8313;49.894;8.084;2023-12-14T00:15:58;2.93;;;2.10;;
16407;SDS011;8313;49.894;8.084;2023-12-14T00:18:25;2.70;;;2.37;;
16407;SDS011;8313;49.894;8.084;2023-12-14T00:20:51;2.20;;;2.07;;
16407;SDS011;8313;49.894;8.084;2023-12-14T00:23:17;2.63;;;2.30;;
16407;SDS011;8313;49.894;8.084;2023-12-14T00:25:43;2.87;;;2.30;;
16407;SDS011;8313;49.894;8.084;2023-12-14T00:28:09;2.60;;;2.27;;
16407;SDS011;8313;49.894;8.084;2023-12-14T00:30:34;2.80;;;2.60;;
16407;SDS011;8313;49.894;8.084;2023-12-14T00:33:00;3.47;;;3.07;;
16407;SDS011;8313;49.894;8.084;2023-12-14T00:35:26;2.90;;;2.50;;
16407;SDS011;8313;49.894;8.084;2023-12-14T00:37:52;3.90;;;2.70;;
16407;SDS011;8313;49.894;8.084;2023-12-14T00:40:17;2.83;;;2.50;;
16407;SDS011;8313;49.894;8.084;2023-12-14T00:42:43;5.43;;;2.90;;
16407;SDS011;8313;49.894;8.084;2023-12-14T00:45:09;4.70;;;2.60;;
16407;SDS011;8313;49.894;8.084;2023-12-14T00:47:35;2.80;;;2.40;;
16407;SDS011;8313;49.894;8.084;2023-12-14T00:50:01;5.83;;;2.63;;
16407;SDS011;8313;49.894;8.084;2023-12-14T00:52:27;2.40;;;2.20;;
16407;SDS011;8313;49.894;8.084;2023-12-14T00:54:53;3.00;;;2.50;;
16407;SDS011;8313;49.894;8.084;2023-12-14T00:57:19;5.60;;;2.40;;
16407;SDS011;8313;49.894;8.084;2023-12-14T00:59:44;2.93;;;2.53;;
16407;SDS011;8313;49.894;8.084;2023-12-14T01:02:10;3.50;;;2.47;;
16407;SDS011;8313;49.894;8.084;2023-12-14T01:04:36;3.47;;;2.80;;
16407;SDS011;8313;49.894;8.084;2023-12-14T01:07:02;3.07;;;2.53;;
16407;SDS011;8313;49.894;8.084;2023-12-14T01:09:29;3.27;;;2.47;;
16407;SDS011;8313;49.894;8.084;2023-12-14T01:11:54;5.27;;;3.17;;
16407;SDS011;8313;49.894;8.084;2023-12-14T01:14:20;4.47;;;2.33;;
16407;SDS011;8313;49.894;8.084;2023-12-14T01:16:46;5.40;;;2.73;;
16407;SDS011;8313;49.894;8.084;2023-12-14T01:19:12;2.83;;;2.63;;
16407;SDS011;8313;49.894;8.084;2023-12-14T01:21:37;5.97;;;3.20;;
16407;SDS011;8313;49.894;8.084;2023-12-14T01:24:03;3.70;;;2.60;;
16407;SDS011;8313;49.894;8.084;2023-12-14T01:26:29;2.90;;;1.83;;
16407;SDS011;8313;49.894;8.084;2023-12-14T01:28:55;2.30;;;2.10;;
16407;SDS011;8313;49.894;8.084;2023-12-14T01:31:20;7.73;;;3.70;;
16407;SDS011;8313;49.894;8.084;2023-12-14T01:33:49;2.10;;;1.90;;
16407;SDS011;8313;49.894;8.084;2023-12-14T01:38:48;6.43;;;2.87;;
16407;SDS011;8313;49.894;8.084;2023-12-14T01:41:14;3.23;;;2.13;;
16407;SDS011;8313;49.894;8.084;2023-12-14T01:43:40;4.80;;;2.70;;
16407;SDS011;8313;49.894;8.084;2023-12-14T01:46:06;2.80;;;2.30;;
16407;SDS011;8313;49.894;8.084;2023-12-14T01:48:32;2.87;;;2.37;;
16407;SDS011;8313;49.894;8.084;2023-12-14T01:50:58;3.37;;;2.63;;
16407;SDS011;8313;49.894;8.084;2023-12-14T01:53:23;2.20;;;1.97;;
16407;SDS011;8313;49.894;8.084;2023-12-14T01:55:49;4.23;;;2.90;;
16407;SDS011;8313;49.894;8.084;2023-12-14T01:58:15;3.47;;;2.40;;
16407;SDS011;8313;49.894;8.084;2023-12-14T02:03:16;2.17;;;2.00;;
16407;SDS011;8313;49.894;8.084;2023-12-14T02:05:42;3.57;;;2.40;;
16407;SDS011;8313;49.894;8.084;2023-12-14T02:08:08;2.90;;;2.50;;
16407;SDS011;8313;49.894;8.084;2023-12-14T02:10:34;3.20;;;2.30;;
16407;SDS011;8313;49.894;8.084;2023-12-14T02:13:03;2.60;;;2.40;;
16407;SDS011;8313;49.894;8.084;2023-12-14T02:15:28;5.57;;;2.40;;
16407;SDS011;8313;49.894;8.084;2023-12-14T02:17:54;3.00;;;2.20;;
16407;SDS011;8313;49.894;8.084;2023-12-14T02:20:20;3.07;;;2.40;;
16407;SDS011;8313;49.894;8.084;2023-12-14T02:22:56;3.63;;;2.47;;
16407;SDS011;8313;49.894;8.084;2023-12-14T02:25:22;3.77;;;2.47;;
16407;SDS011;8313;49.894;8.084;2023-12-14T02:27:49;4.50;;;2.00;;
16407;SDS011;8313;49.894;8.084;2023-12-14T02:30:16;2.13;;;1.93;;
16407;SDS011;8313;49.894;8.084;2023-12-14T02:32:42;4.13;;;2.30;;
16407;SDS011;8313;49.894;8.084;2023-12-14T02:35:08;6.10;;;1.90;;
16407;SDS011;8313;49.894;8.084;2023-12-14T02:37:34;3.97;;;2.20;;
16407;SDS011;8313;49.894;8.084;2023-12-14T02:40:05;2.07;;;1.90;;
16407;SDS011;8313;49.894;8.084;2023-12-14T02:42:32;3.20;;;2.20;;
16407;SDS011;8313;49.894;8.084;2023-12-14T02:44:58;3.80;;;2.23;;
16407;SDS011;8313;49.894;8.084;2023-12-14T02:47:23;1.50;;;1.40;;
16407;SDS011;8313;49.894;8.084;2023-12-14T02:49:49;2.93;;;1.93;;
16407;SDS011;8313;49.894;8.084;2023-12-14T02:52:15;2.50;;;2.10;;
16407;SDS011;8313;49.894;8.084;2023-12-14T02:54:40;4.43;;;2.17;;
16407;SDS011;8313;49.894;8.084;2023-12-14T02:57:06;4.23;;;2.53;;
16407;SDS011;8313;49.894;8.084;2023-12-14T02:59:32;2.13;;;1.60;;
16407;SDS011;8313;49.894;8.084;2023-12-14T03:01:58;2.40;;;2.07;;
16407;SDS011;8313;49.894;8.084;2023-12-14T03:04:24;1.70;;;1.60;;
16407;SDS011;8313;49.894;8.084;2023-12-14T03:06:50;2.97;;;1.57;;
16407;SDS011;8313;49.894;8.084;2023-12-14T03:09:16;1.50;;;1.40;;
16407;SDS011;8313;49.894;8.084;2023-12-14T03:11:44;2.30;;;1.57;;
16407;SDS011;8313;49.894;8.084;2023-12-14T03:14:10;1.83;;;1.50;;
16407;SDS011;8313;49.894;8.084;2023-12-14T03:16:36;1.53;;;1.30;;
16407;SDS011;8313;49.894;8.084;2023-12-14T03:19:02;3.60;;;1.13;;
16407;SDS011;8313;49.894;8.084;2023-12-14T03:21:28;2.27;;;1.73;;
16407;SDS011;8313;49.894;8.084;2023-12-14T03:23:54;1.57;;;1.43;;
16407;SDS011;8313;49.894;8.084;2023-12-14T03:26:20;3.60;;;1.57;;
16407;SDS011;8313;49.894;8.084;2023-12-14T03:28:46;2.23;;;1.60;;
16407;SDS011;8313;49.894;8.084;2023-12-14T03:31:11;3.70;;;2.10;;
16407;SDS011;8313;49.894;8.084;2023-12-14T03:33:41;1.60;;;1.50;;
16407;SDS011;8313;49.894;8.084;2023-12-14T03:36:07;2.10;;;1.90;;
16407;SDS011;8313;49.894;8.084;2023-12-14T03:38:33;1.70;;;1.50;;
16407;SDS011;8313;49.894;8.084;2023-12-14T03:40:59;3.20;;;1.63;;
16407;SDS011;8313;49.894;8.084;2023-12-14T03:43:25;1.63;;;1.33;;
16407;SDS011;8313;49.894;8.084;2023-12-14T03:45:50;2.50;;;2.07;;
16407;SDS011;8313;49.894;8.084;2023-12-14T03:48:16;2.73;;;1.60;;
16407;SDS011;8313;49.894;8.084;2023-12-14T03:50:42;1.50;;;1.40;;
16407;SDS011;8313;49.894;8.084;2023-12-14T03:53:07;2.33;;;1.67;;
16407;SDS011;8313;49.894;8.084;2023-12-14T03:55:33;3.13;;;1.60;;
16407;SDS011;8313;49.894;8.084;2023-12-14T03:57:59;2.43;;;1.80;;
16407;SDS011;8313;49.894;8.084;2023-12-14T04:00:25;2.10;;;1.73;;
16407;SDS011;8313;49.894;8.084;2023-12-14T04:02:51;2.20;;;1.70;;
16407;SDS011;8313;49.894;8.084;2023-12-14T04:05:17;2.43;;;2.00;;
16407;SDS011;8313;49.894;8.084;2023-12-14T04:07:43;3.20;;;2.00;;
16407;SDS011;8313;49.894;8.084;2023-12-14T04:10:09;2.80;;;2.20;;
16407;SDS011;8313;49.894;8.084;2023-12-14T04:12:36;3.07;;;1.70;;
16407;SDS011;8313;49.894;8.084;2023-12-14T04:15:03;1.90;;;1.70;;
16407;SDS011;8313;49.894;8.084;2023-12-14T04:17:29;4.37;;;2.70;;
16407;SDS011;8313;49.894;8.084;2023-12-14T04:19:56;3.07;;;2.27;;
16407;SDS011;8313;49.894;8.084;2023-12-14T04:22:22;2.50;;;1.73;;
16407;SDS011;8313;49.894;8.084;2023-12-14T04:24:47;2.23;;;1.93;;
16407;SDS011;8313;49.894;8.084;2023-12-14T04:27:14;6.10;;;2.37;;
16407;SDS011;8313;49.894;8.084;2023-12-14T04:29:40;3.77;;;2.70;;
16407;SDS011;8313;49.894;8.084;2023-12-14T04:32:05;2.60;;;1.93;;
16407;SDS011;8313;49.894;8.084;2023-12-14T04:34:31;6.80;;;3.23;;
16407;SDS011;8313;49.894;8.084;2023-12-14T04:36:57;3.57;;;2.30;;
16407;SDS011;8313;49.894;8.084;2023-12-14T04:39:23;3.30;;;2.23;;
16407;SDS011;8313;49.894;8.084;2023-12-14T04:41:52;4.00;;;2.60;;
16407;SDS011;8313;49.894;8.084;2023-12-14T04:44:19;3.20;;;2.67;;
16407;SDS011;8313;49.894;8.084;2023-12-14T04:46:46;3.90;;;2.30;;
16407;SDS011;8313;49.894;8.084;2023-12-14T04:49:12;5.10;;;2.67;;
16407;SDS011;8313;49.894;8.084;2023-12-14T04:51:38;4.03;;;2.67;;
16407;SDS011;8313;49.894;8.084;2023-12-14T04:54:04;3.67;;;2.63;;
16407;SDS011;8313;49.894;8.084;2023-12-14T04:56:30;4.00;;;2.80;;
16407;SDS011;8313;49.894;8.084;2023-12-14T04:58:55;5.23;;;2.83;;
16407;SDS011;8313;49.894;8.084;2023-12-14T05:01:21;7.10;;;2.70;;
16407;SDS011;8313;49.894;8.084;2023-12-14T05:03:47;4.70;;;2.70;;
16407;SDS011;8313;49.894;8.084;2023-12-14T05:06:13;4.80;;;3.13;;
16407;SDS011;8313;49.894;8.084;2023-12-14T05:08:39;3.17;;;2.50;;
16407;SDS011;8313;49.894;8.084;2023-12-14T05:11:04;6.53;;;2.50;;
16407;SDS011;8313;49.894;8.084;2023-12-14T05:13:30;3.43;;;3.13;;
16407;SDS011;8313;49.894;8.084;2023-12-14T05:15:56;3.83;;;2.70;;
16407;SDS011;8313;49.894;8.084;2023-12-14T05:18:24;4.60;;;3.47;;
16407;SDS011;8313;49.894;8.084;2023-12-14T05:20:50;3.63;;;2.93;;
16407;SDS011;8313;49.894;8.084;2023-12-14T05:23:16;3.33;;;2.80;;
16407;SDS011;8313;49.894;8.084;2023-12-14T05:25:41;7.13;;;3.57;;
16407;SDS011;8313;49.894;8.084;2023-12-14T05:28:07;11.20;;;3.97;;
16407;SDS011;8313;49.894;8.084;2023-12-14T05:30:33;4.90;;;3.50;;
16407;SDS011;8313;49.894;8.084;2023-12-14T05:32:59;6.37;;;3.27;;
16407;SDS011;8313;49.894;8.084;2023-12-14T05:35:24;8.33;;;3.60;;
16407;SDS011;8313;49.894;8.084;2023-12-14T05:37:51;7.70;;;4.00;;
16407;SDS011;8313;49.894;8.084;2023-12-14T05:40:16;8.50;;;3.90;;
16407;SDS011;8313;49.894;8.084;2023-12-14T05:42:42;7.33;;;4.53;;
16407;SDS011;8313;49.894;8.084;2023-12-14T05:45:08;5.83;;;3.77;;
16407;SDS011;8313;49.894;8.084;2023-12-14T05:47:34;7.10;;;4.97;;
16407;SDS011;8313;49.894;8.084;2023-12-14T05:50:00;9.10;;;5.73;;
16407;SDS011;8313;49.894;8.084;2023-12-14T05:52:27;9.00;;;5.20;;
16407;SDS011;8313;49.894;8.084;2023-12-14T05:54:52;9.17;;;4.70;;
16407;SDS011;8313;49.894;8.084;2023-12-14T05:57:18;7.23;;;4.93;;
16407;SDS011;8313;49.894;8.084;2023-12-14T05:59:44;7.60;;;4.20;;
16407;SDS011;8313;49.894;8.084;2023-12-14T06:02:09;9.63;;;5.13;;
16407;SDS011;8313;49.894;8.084;2023-12-14T06:04:35;8.53;;;4.20;;
16407;SDS011;8313;49.894;8.084;2023-12-14T06:07:01;6.97;;;5.30;;
16407;SDS011;8313;49.894;8.084;2023-12-14T06:09:27;8.93;;;7.60;;
16407;SDS011;8313;49.894;8.084;2023-12-14T06:12:02;9.70;;;6.30;;
16407;SDS011;8313;49.894;8.084;2023-12-14T06:14:29;10.13;;;6.07;;
16407;SDS011;8313;49.894;8.084;2023-12-14T06:16:55;8.77;;;4.93;;
16407;SDS011;8313;49.894;8.084;2023-12-14T06:19:21;5.83;;;4.50;;
16407;SDS011;8313;49.894;8.084;2023-12-14T06:21:47;8.93;;;5.00;;
16407;SDS011;8313;49.894;8.084;2023-12-14T06:24:13;7.03;;;4.23;;
16407;SDS011;8313;49.894;8.084;2023-12-14T06:26:42;9.07;;;4.47;;
16407;SDS011;8313;49.894;8.084;2023-12-14T06:29:12;7.23;;;4.60;;
16407;SDS011;8313;49.894;8.084;2023-12-14T06:31:38;5.20;;;4.20;;
16407;SDS011;8313;49.894;8.084;2023-12-14T06:34:04;7.00;;;4.70;;
16407;SDS011;8313;49.894;8.084;2023-12-14T06:36:31;7.33;;;4.37;;
16407;SDS011;8313;49.894;8.084;2023-12-14T06:38:57;6.60;;;4.23;;
16407;SDS011;8313;49.894;8.084;2023-12-14T06:41:24;5.70;;;3.87;;
16407;SDS011;8313;49.894;8.084;2023-12-14T06:43:51;7.13;;;3.93;;
16407;SDS011;8313;49.894;8.084;2023-12-14T06:46:18;8.43;;;4.80;;
16407;SDS011;8313;49.894;8.084;2023-12-14T06:48:45;6.90;;;4.30;;
16407;SDS011;8313;49.894;8.084;2023-12-14T06:51:11;8.80;;;4.80;;
16407;SDS011;8313;49.894;8.084;2023-12-14T06:53:38;6.50;;;4.60;;
16407;SDS011;8313;49.894;8.084;2023-12-14T06:56:05;9.30;;;4.50;;
16407;SDS011;8313;49.894;8.084;2023-12-14T06:58:34;6.63;;;4.43;;
16407;SDS011;8313;49.894;8.084;2023-12-14T07:01:00;5.37;;;3.87;;
16407;SDS011;8313;49.894;8.084;2023-12-14T07:03:26;7.33;;;4.10;;
16407;SDS011;8313;49.894;8.084;2023-12-14T07:05:52;7.27;;;4.03;;
16407;SDS011;8313;49.894;8.084;2023-12-14T07:08:17;7.03;;;4.73;;
16407;SDS011;8313;49.894;8.084;2023-12-14T07:10:43;8.40;;;4.60;;
16407;SDS011;8313;49.894;8.084;2023-12-14T07:13:09;6.90;;;4.97;;
16407;SDS011;8313;49.894;8.084;2023-12-14T07:15:34;7.83;;;4.67;;
16407;SDS011;8313;49.894;8.084;2023-12-14T07:18:00;12.27;;;4.47;;
16407;SDS011;8313;49.894;8.084;2023-12-14T07:20:26;7.80;;;4.50;;
16407;SDS011;8313;49.894;8.084;2023-12-14T07:22:52;9.70;;;5.07;;
16407;SDS011;8313;49.894;8.084;2023-12-14T07:25:18;7.30;;;4.30;;
16407;SDS011;8313;49.894;8.084;2023-12-14T07:27:44;6.47;;;4.20;;
16407;SDS011;8313;49.894;8.084;2023-12-14T07:30:11;6.97;;;4.80;;
16407;SDS011;8313;49.894;8.084;2023-12-14T07:32:37;8.57;;;4.80;;
16407;SDS011;8313;49.894;8.084;2023-12-14T07:35:03;6.27;;;4.30;;
16407;SDS011;8313;49.894;8.084;2023-12-14T07:37:30;5.43;;;3.90;;
16407;SDS011;8313;49.894;8.084;2023-12-14T07:39:55;8.03;;;4.27;;
16407;SDS011;8313;49.894;8.084;2023-12-14T07:42:21;7.30;;;4.40;;
16407;SDS011;8313;49.894;8.084;2023-12-14T07:44:47;7.67;;;4.67;;
16407;SDS011;8313;49.894;8.084;2023-12-14T07:47:14;10.20;;;4.77;;
16407;SDS011;8313;49.894;8.084;2023-12-14T07:49:40;6.67;;;4.73;;
16407;SDS011;8313;49.894;8.084;2023-12-14T07:52:06;6.57;;;4.80;;
16407;SDS011;8313;49.894;8.084;2023-12-14T07:54:32;7.73;;;4.53;;
16407;SDS011;8313;49.894;8.084;2023-12-14T07:56:57;7.80;;;4.53;;
16407;SDS011;8313;49.894;8.084;2023-12-14T07:59:23;11.50;;;5.73;;
16407;SDS011;8313;49.894;8.084;2023-12-14T08:01:49;8.67;;;5.37;;
16407;SDS011;8313;49.894;8.084;2023-12-14T08:04:14;10.60;;;6.00;;
16407;SDS011;8313;49.894;8.084;2023-12-14T08:06:40;10.80;;;5.70;;
16407;SDS011;8313;49.894;8.084;2023-12-14T08:09:06;12.23;;;6.47;;
16407;SDS011;8313;49.894;8.084;2023-12-14T08:11:32;10.40;;;5.87;;
16407;SDS011;8313;49.894;8.084;2023-12-14T08:13:58;11.50;;;6.00;;
16407;SDS011;8313;49.894;8.084;2023-12-14T08:16:24;13.17;;;7.10;;
16407;SDS011;8313;49.894;8.084;2023-12-14T08:18:50;13.80;;;6.87;;
16407;SDS011;8313;49.894;8.084;2023-12-14T08:21:16;9.50;;;5.60;;
16407;SDS011;8313;49.894;8.084;2023-12-14T08:23:42;11.23;;;6.20;;
16407;SDS011;8313;49.894;8.084;2023-12-14T08:26:08;10.57;;;6.20;;
16407;SDS011;8313;49.894;8.084;2023-12-14T08:28:36;12.00;;;6.63;;
16407;SDS011;8313;49.894;8.084;2023-12-14T08:31:02;10.50;;;5.60;;
16407;SDS011;8313;49.894;8.084;2023-12-14T08:33:29;11.17;;;6.60;;
16407;SDS011;8313;49.894;8.084;2023-12-14T08:35:55;13.03;;;7.00;;
16407;SDS011;8313;49.894;8.084;2023-12-14T08:38:21;14.87;;;7.33;;
16407;SDS011;8313;49.894;8.084;2023-12-14T08:40:47;11.27;;;6.97;;
16407;SDS011;8313;49.894;8.084;2023-12-14T08:43:13;15.10;;;8.07;;
16407;SDS011;8313;49.894;8.084;2023-12-14T08:45:38;19.50;;;10.63;;
16407;SDS011;8313;49.894;8.084;2023-12-14T08:48:04;14.40;;;8.83;;
16407;SDS011;8313;49.894;8.084;2023-12-14T08:50:30;14.43;;;7.90;;
16407;SDS011;8313;49.894;8.084;2023-12-14T08:52:56;14.53;;;7.97;;
16407;SDS011;8313;49.894;8.084;2023-12-14T08:55:25;15.77;;;7.50;;
16407;SDS011;8313;49.894;8.084;2023-12-14T08:57:51;13.47;;;7.53;;
16407;SDS011;8313;49.894;8.084;2023-12-14T09:00:17;13.20;;;7.50;;
16407;SDS011;8313;49.894;8.084;2023-12-14T09:02:44;12.80;;;7.30;;
16407;SDS011;8313;49.894;8.084;2023-12-14T09:05:14;13.87;;;7.50;;
16407;SDS011;8313;49.894;8.084;2023-12-14T09:07:41;10.53;;;5.33;;
16407;SDS011;8313;49.894;8.084;2023-12-14T09:10:07;11.40;;;6.60;;
16407;SDS011;8313;49.894;8.084;2023-12-14T09:12:33;8.73;;;5.70;;
16407;SDS011;8313;49.894;8.084;2023-12-14T09:14:59;6.90;;;4.37;;
16407;SDS011;8313;49.894;8.084;2023-12-14T09:17:25;11.67;;;5.73;;
16407;SDS011;8313;49.894;8.084;2023-12-14T09:19:57;8.23;;;4.70;;
16407;SDS011;8313;49.894;8.084;2023-12-14T09:22:24;7.63;;;5.10;;
16407;SDS011;8313;49.894;8.084;2023-12-14T09:24:50;11.37;;;5.57;;
16407;SDS011;8313;49.894;8.084;2023-12-14T09:27:16;9.10;;;4.80;;
16407;SDS011;8313;49.894;8.084;2023-12-14T09:29:42;9.07;;;5.90;;
16407;SDS011;8313;49.894;8.084;2023-12-14T09:32:08;7.57;;;5.53;;
16407;SDS011;8313;49.894;8.084;2023-12-14T09:34:34;13.90;;;5.00;;
16407;SDS011;8313;49.894;8.084;2023-12-14T09:37:00;11.33;;;5.30;;
16407;SDS011;8313;49.894;8.084;2023-12-14T09:39:25;9.37;;;5.70;;
16407;SDS011;8313;49.894;8.084;2023-12-14T09:41:53;9.57;;;5.50;;
16407;SDS011;8313;49.894;8.084;2023-12-14T09:44:30;9.90;;;5.73;;
16407;SDS011;8313;49.894;8.084;2023-12-14T09:46:58;8.80;;;5.70;;
16407;SDS011;8313;49.894;8.084;2023-12-14T09:49:25;8.80;;;5.10;;
16407;SDS011;8313;49.894;8.084;2023-12-14T09:51:57;8.33;;;5.00;;
16407;SDS011;8313;49.894;8.084;2023-12-14T09:54:23;9.33;;;5.23;;
16407;SDS011;8313;49.894;8.084;2023-12-14T09:56:50;8.80;;;4.53;;
16407;SDS011;8313;49.894;8.084;2023-12-14T09:59:18;9.87;;;5.57;;
16407;SDS011;8313;49.894;8.084;2023-12-14T10:01:44;10.67;;;5.53;;
16407;SDS011;8313;49.894;8.084;2023-12-14T10:06:36;9.10;;;5.97;;
16407;SDS011;8313;49.894;8.084;2023-12-14T10:09:03;9.13;;;6.17;;
16407;SDS011;8313;49.894;8.084;2023-12-14T10:11:30;13.77;;;8.53;;
16407;SDS011;8313;49.894;8.084;2023-12-14T10:13:55;13.77;;;7.50;;
16407;SDS011;8313;49.894;8.084;2023-12-14T10:16:30;13.70;;;7.17;;
16407;SDS011;8313;49.894;8.084;2023-12-14T10:18:57;13.43;;;7.47;;
16407;SDS011;8313;49.894;8.084;2023-12-14T10:21:27;14.80;;;7.50;;
16407;SDS011;8313;49.894;8.084;2023-12-14T10:23:56;16.27;;;9.37;;
16407;SDS011;8313;49.894;8.084;2023-12-14T10:26:23;15.77;;;8.90;;
16407;SDS011;8313;49.894;8.084;2023-12-14T10:28:50;20.57;;;9.87;;
16407;SDS011;8313;49.894;8.084;2023-12-14T10:31:17;14.20;;;7.47;;
16407;SDS011;8313;49.894;8.084;2023-12-14T10:33:45;15.87;;;7.70;;
16407;SDS011;8313;49.894;8.084;2023-12-14T10:36:12;20.07;;;7.27;;
16407;SDS011;8313;49.894;8.084;2023-12-14T10:38:39;14.33;;;8.40;;
16407;SDS011;8313;49.894;8.084;2023-12-14T10:41:08;10.90;;;6.13;;
16407;SDS011;8313;49.894;8.084;2023-12-14T10:43:37;13.20;;;7.63;;
16407;SDS011;8313;49.894;8.084;2023-12-14T10:46:05;11.47;;;6.60;;
16407;SDS011;8313;49.894;8.084;2023-12-14T10:48:32;13.80;;;7.63;;
16407;SDS011;8313;49.894;8.084;2023-12-14T10:51:06;11.43;;;6.80;;
16407;SDS011;8313;49.894;8.084;2023-12-14T10:53:33;11.03;;;6.60;;
16407;SDS011;8313;49.894;8.084;2023-12-14T10:56:00;13.77;;;7.90;;
16407;SDS011;8313;49.894;8.084;2023-12-14T11:01:21;12.03;;;6.77;;
16407;SDS011;8313;49.894;8.084;2023-12-14T11:03:49;10.00;;;6.27;;
16407;SDS011;8313;49.894;8.084;2023-12-14T11:09:07;10.70;;;6.47;;
16407;SDS011;8313;49.894;8.084;2023-12-14T11:11:54;9.20;;;5.50;;
16407;SDS011;8313;49.894;8.084;2023-12-14T11:14:23;11.63;;;6.17;;
16407;SDS011;8313;49.894;8.084;2023-12-14T11:16:50;11.53;;;6.20;;
16407;SDS011;8313;49.894;8.084;2023-12-14T11:24:21;11.50;;;6.07;;
16407;SDS011;8313;49.894;8.084;2023-12-14T11:26:51;11.13;;;7.43;;
16407;SDS011;8313;49.894;8.084;2023-12-14T11:29:17;8.80;;;5.40;;
16407;SDS011;8313;49.894;8.084;2023-12-14T11:31:44;11.27;;;6.87;;
16407;SDS011;8313;49.894;8.084;2023-12-14T11:34:11;13.07;;;6.33;;
16407;SDS011;8313;49.894;8.084;2023-12-14T11:36:36;12.67;;;6.80;;
16407;SDS011;8313;49.894;8.084;2023-12-14T11:39:07;10.90;;;8.60;;
16407;SDS011;8313;49.894;8.084;2023-12-14T11:41:34;12.70;;;7.93;;
16407;SDS011;8313;49.894;8.084;2023-12-14T11:44:01;9.40;;;6.03;;
16407;SDS011;8313;49.894;8.084;2023-12-14T11:46:28;8.90;;;6.77;;
16407;SDS011;8313;49.894;8.084;2023-12-14T11:48:55;11.33;;;8.37;;
16407;SDS011;8313;49.894;8.084;2023-12-14T11:51:21;19.10;;;14.00;;
16407;SDS011;8313;49.894;8.084;2023-12-14T11:53:48;15.37;;;13.30;;
16407;SDS011;8313;49.894;8.084;2023-12-14T11:56:17;14.70;;;9.83;;
16407;SDS011;8313;49.894;8.084;2023-12-14T11:58:43;13.60;;;10.03;;
16407;SDS011;8313;49.894;8.084;2023-12-14T12:01:13;17.00;;;12.10;;
16407;SDS011;8313;49.894;8.084;2023-12-14T12:03:40;13.93;;;11.10;;
16407;SDS011;8313;49.894;8.084;2023-12-14T12:06:05;11.67;;;8.57;;
16407;SDS011;8313;49.894;8.084;2023-12-14T12:08:31;9.60;;;6.87;;
16407;SDS011;8313;49.894;8.084;2023-12-14T12:11:06;11.80;;;5.97;;
16407;SDS011;8313;49.894;8.084;2023-12-14T12:13:34;9.70;;;5.60;;
16407;SDS011;8313;49.894;8.084;2023-12-14T12:15:59;8.17;;;4.50;;
16407;SDS011;8313;49.894;8.084;2023-12-14T12:18:25;7.50;;;4.37;;
16407;SDS011;8313;49.894;8.084;2023-12-14T12:20:52;8.57;;;4.50;;
16407;SDS011;8313;49.894;8.084;2023-12-14T12:23:18;6.53;;;3.87;;
16407;SDS011;8313;49.894;8.084;2023-12-14T12:25:44;6.70;;;4.00;;
16407;SDS011;8313;49.894;8.084;2023-12-14T12:28:09;5.50;;;3.63;;
16407;SDS011;8313;49.894;8.084;2023-12-14T12:30:35;7.37;;;4.97;;
16407;SDS011;8313;49.894;8.084;2023-12-14T12:33:01;5.70;;;3.60;;
16407;SDS011;8313;49.894;8.084;2023-12-14T12:35:27;5.93;;;3.60;;
16407;SDS011;8313;49.894;8.084;2023-12-14T12:37:55;9.10;;;4.40;;
16407;SDS011;8313;49.894;8.084;2023-12-14T12:40:21;7.33;;;4.30;;
16407;SDS011;8313;49.894;8.084;2023-12-14T12:42:48;6.83;;;3.43;;
16407;SDS011;8313;49.894;8.084;2023-12-14T12:45:14;3.60;;;2.80;;
16407;SDS011;8313;49.894;8.084;2023-12-14T12:47:44;4.30;;;2.90;;
16407;SDS011;8313;49.894;8.084;2023-12-14T12:50:10;6.30;;;3.17;;
16407;SDS011;8313;49.894;8.084;2023-12-14T12:52:36;8.53;;;4.20;;
16407;SDS011;8313;49.894;8.084;2023-12-14T12:55:02;3.70;;;2.37;;
16407;SDS011;8313;49.894;8.084;2023-12-14T12:57:30;4.50;;;3.00;;
16407;SDS011;8313;49.894;8.084;2023-12-14T12:59:56;6.10;;;3.00;;
16407;SDS011;8313;49.894;8.084;2023-12-14T13:02:21;2.67;;;1.87;;
16407;SDS011;8313;49.894;8.084;2023-12-14T13:04:47;4.00;;;2.20;;
16407;SDS011;8313;49.894;8.084;2023-12-14T13:07:13;2.43;;;2.20;;
16407;SDS011;8313;49.894;8.084;2023-12-14T13:09:39;3.23;;;2.40;;
16407;SDS011;8313;49.894;8.084;2023-12-14T13:12:04;3.17;;;2.13;;
16407;SDS011;8313;49.894;8.084;2023-12-14T13:14:31;2.90;;;1.97;;
16407;SDS011;8313;49.894;8.084;2023-12-14T13:16:57;4.13;;;2.30;;
16407;SDS011;8313;49.894;8.084;2023-12-14T13:19:25;2.80;;;1.90;;
16407;SDS011;8313;49.894;8.084;2023-12-14T13:21:52;3.00;;;1.73;;
16407;SDS011;8313;49.894;8.084;2023-12-14T13:24:18;2.90;;;2.23;;
16407;SDS011;8313;49.894;8.084;2023-12-14T13:26:44;3.07;;;2.10;;
16407;SDS011;8313;49.894;8.084;2023-12-14T13:29:09;4.00;;;2.30;;
16407;SDS011;8313;49.894;8.084;2023-12-14T13:31:35;4.00;;;2.00;;
16407;SDS011;8313;49.894;8.084;2023-12-14T13:34:01;2.53;;;2.13;;
16407;SDS011;8313;49.894;8.084;2023-12-14T13:36:27;3.07;;;2.03;;
16407;SDS011;8313;49.894;8.084;2023-12-14T13:38:52;3.27;;;1.80;;
16407;SDS011;8313;49.894;8.084;2023-12-14T13:41:19;3.37;;;2.00;;
16407;SDS011;8313;49.894;8.084;2023-12-14T13:43:44;2.70;;;2.13;;
16407;SDS011;8313;49.894;8.084;2023-12-14T13:46:11;3.60;;;2.67;;
16407;SDS011;8313;49.894;8.084;2023-12-14T13:48:37;2.30;;;1.77;;
16407;SDS011;8313;49.894;8.084;2023-12-14T13:51:02;1.80;;;1.60;;
16407;SDS011;8313;49.894;8.084;2023-12-14T13:53:28;2.07;;;1.80;;
16407;SDS011;8313;49.894;8.084;2023-12-14T13:55:54;2.70;;;1.90;;
16407;SDS011;8313;49.894;8.084;2023-12-14T13:58:19;2.60;;;2.40;;
16407;SDS011;8313;49.894;8.084;2023-12-14T14:00:45;2.50;;;1.93;;
16407;SDS011;8313;49.894;8.084;2023-12-14T14:03:11;2.93;;;1.67;;
16407;SDS011;8313;49.894;8.084;2023-12-14T14:05:38;1.23;;;1.13;;
16407;SDS011;8313;49.894;8.084;2023-12-14T14:08:04;2.00;;;1.60;;
16407;SDS011;8313;49.894;8.084;2023-12-14T14:10:30;2.03;;;1.70;;
16407;SDS011;8313;49.894;8.084;2023-12-14T14:12:55;1.87;;;1.70;;
16407;SDS011;8313;49.894;8.084;2023-12-14T14:15:21;2.67;;;1.17;;
16407;SDS011;8313;49.894;8.084;2023-12-14T14:17:47;1.37;;;1.27;;
16407;SDS011;8313;49.894;8.084;2023-12-14T14:20:16;1.77;;;1.63;;
16407;SDS011;8313;49.894;8.084;2023-12-14T14:22:42;1.83;;;1.53;;
16407;SDS011;8313;49.894;8.084;2023-12-14T14:25:09;1.60;;;1.43;;
16407;SDS011;8313;49.894;8.084;2023-12-14T14:27:35;2.07;;;1.40;;
16407;SDS011;8313;49.894;8.084;2023-12-14T14:30:01;1.47;;;1.37;;
16407;SDS011;8313;49.894;8.084;2023-12-14T14:32:28;1.70;;;1.37;;
16407;SDS011;8313;49.894;8.084;2023-12-14T14:34:56;1.27;;;1.17;;
16407;SDS011;8313;49.894;8.084;2023-12-14T14:37:23;3.80;;;2.10;;
16407;SDS011;8313;49.894;8.084;2023-12-14T14:39:52;3.07;;;2.20;;
16407;SDS011;8313;49.894;8.084;2023-12-14T14:42:18;4.93;;;2.33;;
16407;SDS011;8313;49.894;8.084;2023-12-14T14:44:44;2.60;;;2.00;;
16407;SDS011;8313;49.894;8.084;2023-12-14T14:47:10;3.97;;;1.40;;
16407;SDS011;8313;49.894;8.084;2023-12-14T14:49:35;2.40;;;1.70;;
16407;SDS011;8313;49.894;8.084;2023-12-14T14:52:01;1.80;;;1.63;;
16407;SDS011;8313;49.894;8.084;2023-12-14T14:54:27;1.83;;;1.40;;
16407;SDS011;8313;49.894;8.084;2023-12-14T14:56:53;2.57;;;1.93;;
16407;SDS011;8313;49.894;8.084;2023-12-14T14:59:18;5.70;;;2.30;;
16407;SDS011;8313;49.894;8.084;2023-12-14T15:01:44;3.17;;;1.60;;
16407;SDS011;8313;49.894;8.084;2023-12-14T15:04:11;2.10;;;1.70;;
16407;SDS011;8313;49.894;8.084;2023-12-14T15:06:36;5.43;;;2.93;;
16407;SDS011;8313;49.894;8.084;2023-12-14T15:09:02;7.33;;;2.87;;
16407;SDS011;8313;49.894;8.084;2023-12-14T15:11:30;3.70;;;1.93;;